createdAt,value
2017-10-07T00:00:16.774Z,65.20
2017-10-07T00:02:45.858Z,64.40
2017-10-07T00:05:14.248Z,64.30
2017-10-07T00:07:43.324Z,64.80
2017-10-07T00:10:11.995Z,64.70
2017-10-07T00:12:40.631Z,63.80
2017-10-07T00:15:09.308Z,63.70
2017-10-07T00:17:37.932Z,64.30
2017-10-07T00:20:06.539Z,64.40
2017-10-07T00:22:34.918Z,64.40
2017-10-07T00:25:03.614Z,64.70
2017-10-07T00:27:32.689Z,65.10
2017-10-07T00:30:00.976Z,64.90
2017-10-07T00:32:29.434Z,64.40
2017-10-07T00:34:57.951Z,64.30
2017-10-07T00:37:27.234Z,63.80
2017-10-07T00:39:55.454Z,63.80
2017-10-07T00:42:23.704Z,63.20
2017-10-07T00:44:53.127Z,63.60
2017-10-07T00:47:21.686Z,63.60
2017-10-07T00:49:50.956Z,64.00
2017-10-07T00:52:19.332Z,64.00
2017-10-07T00:54:48.544Z,63.40
2017-10-07T00:57:18.657Z,63.70
2017-10-07T00:59:47.020Z,63.70
2017-10-07T01:02:15.373Z,63.90
2017-10-07T01:04:43.494Z,63.80
2017-10-07T01:07:12.098Z,64.00
2017-10-07T01:09:41.378Z,64.00
2017-10-07T01:12:10.498Z,64.10
2017-10-07T01:14:39.556Z,64.90
2017-10-07T01:17:07.728Z,64.90
2017-10-07T01:19:36.203Z,64.70
2017-10-07T01:22:04.481Z,64.10
2017-10-07T01:24:32.980Z,64.40
2017-10-07T01:27:02.269Z,64.40
2017-10-07T01:29:30.714Z,64.40
2017-10-07T01:31:59.175Z,64.30
2017-10-07T01:34:27.508Z,64.30
2017-10-07T01:36:56.844Z,64.00
2017-10-07T01:39:25.164Z,64.00
2017-10-07T01:41:53.657Z,64.60
2017-10-07T01:44:22.186Z,64.60
2017-10-07T01:46:50.487Z,64.20
2017-10-07T01:49:18.775Z,64.80
2017-10-07T01:51:47.193Z,64.40
2017-10-07T01:54:16.355Z,64.70
2017-10-07T01:56:44.845Z,64.70
2017-10-07T01:59:13.121Z,65.60
2017-10-07T02:01:41.318Z,64.50
2017-10-07T02:04:10.614Z,64.70
2017-10-07T02:06:39.692Z,65.00
2017-10-07T02:09:08.121Z,65.00
2017-10-07T02:11:36.556Z,65.00
2017-10-07T02:14:04.827Z,65.60
2017-10-07T02:16:33.320Z,65.20
2017-10-07T02:19:02.522Z,65.90
2017-10-07T02:21:31.594Z,65.80
2017-10-07T02:24:00.103Z,65.70
2017-10-07T02:26:29.391Z,65.50
2017-10-07T02:28:57.756Z,65.40
2017-10-07T02:31:26.346Z,65.90
2017-10-07T02:33:54.909Z,65.90
2017-10-07T02:36:23.410Z,66.10
2017-10-07T02:38:51.590Z,66.10
2017-10-07T02:41:20.150Z,66.10
2017-10-07T02:43:48.734Z,66.60
2017-10-07T02:46:17.241Z,66.50
2017-10-07T02:48:46.522Z,66.80
2017-10-07T02:51:15.813Z,67.30
2017-10-07T02:53:44.206Z,67.30
2017-10-07T02:56:12.771Z,67.10
2017-10-07T02:58:41.170Z,66.80
2017-10-07T03:01:10.502Z,67.30
2017-10-07T03:03:38.651Z,67.20
2017-10-07T03:06:07.629Z,67.80
2017-10-07T03:08:36.110Z,67.70
2017-10-07T03:11:05.469Z,66.90
2017-10-07T03:13:34.616Z,66.20
2017-10-07T03:16:03.713Z,66.20
2017-10-07T03:18:32.532Z,66.50
2017-10-07T03:21:01.309Z,66.50
2017-10-07T03:23:29.728Z,66.90
2017-10-07T03:25:58.051Z,66.90
2017-10-07T03:28:27.444Z,66.90
2017-10-07T03:30:56.726Z,67.70
2017-10-07T03:33:26.045Z,66.70
2017-10-07T03:35:55.478Z,66.80
2017-10-07T03:38:24.186Z,66.70
2017-10-07T03:40:52.611Z,66.60
2017-10-07T03:43:22.204Z,67.10
2017-10-07T03:45:51.031Z,66.90
2017-10-07T03:48:20.600Z,67.00
2017-10-07T03:50:49.071Z,67.00
2017-10-07T03:53:18.492Z,67.20
2017-10-07T03:55:47.712Z,67.10
2017-10-07T03:58:16.271Z,67.10
2017-10-07T04:00:45.143Z,67.20
2017-10-07T04:03:15.023Z,67.10
2017-10-07T04:05:43.653Z,67.10
2017-10-07T04:08:12.270Z,67.10
2017-10-07T04:10:40.490Z,67.80
2017-10-07T04:13:08.970Z,67.00
2017-10-07T04:15:37.449Z,66.90
2017-10-07T04:18:05.849Z,66.50
2017-10-07T04:20:34.469Z,66.40
2017-10-07T04:23:02.809Z,66.40
2017-10-07T04:25:31.089Z,66.00
2017-10-07T04:28:00.369Z,65.90
2017-10-07T04:30:28.866Z,65.80
2017-10-07T04:32:58.359Z,66.30
2017-10-07T04:35:26.905Z,66.30
2017-10-07T04:37:55.208Z,66.40
2017-10-07T04:40:24.407Z,66.20
2017-10-07T04:42:52.750Z,66.20
2017-10-07T04:45:21.191Z,66.30
2017-10-07T04:47:50.480Z,66.70
2017-10-07T04:50:19.017Z,66.50
2017-10-07T04:52:47.404Z,66.90
2017-10-07T04:55:15.926Z,67.00
2017-10-07T04:57:45.095Z,66.00
2017-10-07T05:00:13.374Z,65.90
2017-10-07T05:02:41.892Z,65.90
2017-10-07T05:05:11.164Z,66.10
2017-10-07T05:07:39.560Z,66.10
2017-10-07T05:10:08.751Z,65.70
2017-10-07T05:12:37.915Z,65.90
2017-10-07T05:15:06.310Z,65.90
2017-10-07T05:17:34.590Z,65.80
2017-10-07T05:20:03.170Z,66.00
2017-10-07T05:22:31.731Z,66.30
2017-10-07T05:25:00.369Z,66.30
2017-10-07T05:27:28.729Z,66.30
2017-10-07T05:29:57.791Z,66.40
2017-10-07T05:32:26.280Z,66.40
2017-10-07T05:34:54.461Z,66.20
2017-10-07T05:37:23.059Z,65.80
2017-10-07T05:39:51.878Z,65.30
2017-10-07T05:42:20.222Z,65.20
2017-10-07T05:44:48.661Z,65.70
2017-10-07T05:47:17.169Z,65.10
2017-10-07T05:49:45.751Z,65.10
2017-10-07T05:52:15.677Z,64.70
2017-10-07T05:54:45.177Z,64.00
2017-10-07T05:57:13.656Z,64.00
2017-10-07T05:59:42.940Z,64.00
2017-10-07T06:02:11.186Z,64.00
2017-10-07T06:04:39.780Z,63.30
2017-10-07T06:07:08.449Z,63.70
2017-10-07T06:09:36.791Z,63.90
2017-10-07T06:12:06.079Z,64.10
2017-10-07T06:14:35.545Z,64.50
2017-10-07T06:17:03.817Z,63.90
2017-10-07T06:19:32.140Z,64.20
2017-10-07T06:22:01.346Z,63.90
2017-10-07T06:24:30.512Z,63.70
2017-10-07T06:26:58.941Z,63.60
2017-10-07T06:29:27.176Z,62.70
2017-10-07T06:31:55.741Z,63.30
2017-10-07T06:34:24.244Z,63.60
2017-10-07T06:36:52.851Z,61.90
2017-10-07T06:39:21.466Z,60.90
2017-10-07T06:41:49.738Z,61.30
2017-10-07T06:44:17.946Z,61.40
2017-10-07T06:46:46.726Z,61.50
2017-10-07T06:49:15.159Z,62.00
2017-10-07T06:51:43.620Z,62.30
2017-10-07T06:54:12.131Z,62.20
2017-10-07T06:56:40.786Z,62.30
2017-10-07T06:59:09.768Z,62.50
2017-10-07T07:01:38.337Z,62.40
2017-10-07T07:04:07.060Z,61.80
2017-10-07T07:06:35.507Z,61.70
2017-10-07T07:09:03.835Z,61.40
2017-10-07T07:11:32.456Z,60.20
2017-10-07T07:14:00.828Z,60.30
2017-10-07T07:16:29.007Z,61.00
2017-10-07T07:18:57.496Z,61.50
2017-10-07T07:21:26.082Z,61.00
2017-10-07T07:23:54.666Z,61.50
2017-10-07T07:26:23.241Z,61.80
2017-10-07T07:28:51.689Z,61.90
2017-10-07T07:31:20.118Z,61.60
2017-10-07T07:33:49.398Z,61.30
2017-10-07T07:36:18.002Z,61.30
2017-10-07T07:38:46.929Z,61.00
2017-10-07T07:41:15.501Z,60.90
2017-10-07T07:43:44.263Z,60.70
2017-10-07T07:46:13.590Z,60.20
2017-10-07T07:48:41.867Z,60.20
2017-10-07T07:51:10.170Z,60.80
2017-10-07T07:53:38.767Z,60.00
2017-10-07T07:56:07.287Z,59.80
2017-10-07T07:58:36.510Z,60.80
2017-10-07T08:01:04.890Z,60.80
2017-10-07T08:03:33.488Z,60.20
2017-10-07T08:06:01.893Z,59.80
2017-10-07T08:08:30.817Z,59.70
2017-10-07T08:10:59.355Z,59.90
2017-10-07T08:13:27.837Z,59.80
2017-10-07T08:15:56.435Z,59.80
2017-10-07T08:18:24.816Z,59.60
2017-10-07T08:20:54.082Z,58.80
2017-10-07T08:23:22.798Z,59.40
2017-10-07T08:25:51.294Z,58.50
2017-10-07T08:28:20.610Z,57.90
2017-10-07T08:30:49.809Z,57.80
2017-10-07T08:33:18.359Z,57.80
2017-10-07T08:35:47.975Z,57.90
2017-10-07T08:38:16.492Z,57.90
2017-10-07T08:40:45.132Z,56.80
2017-10-07T08:43:13.786Z,57.40
2017-10-07T08:45:42.195Z,58.00
2017-10-07T08:48:11.257Z,57.40
2017-10-07T08:50:39.465Z,56.80
2017-10-07T08:53:08.891Z,56.90
2017-10-07T08:55:37.353Z,56.80
2017-10-07T08:58:06.579Z,57.10
2017-10-07T09:00:35.108Z,57.20
2017-10-07T09:03:03.505Z,57.10
2017-10-07T09:05:32.003Z,56.70
2017-10-07T09:08:01.079Z,56.20
2017-10-07T09:10:30.684Z,56.60
2017-10-07T09:13:00.151Z,57.90
2017-10-07T09:15:28.475Z,57.80
2017-10-07T09:17:56.927Z,56.40
2017-10-07T09:20:25.325Z,56.80
2017-10-07T09:22:54.450Z,54.70
2017-10-07T09:25:23.057Z,54.50
2017-10-07T09:27:51.775Z,54.40
2017-10-07T09:30:20.329Z,55.10
2017-10-07T09:32:48.835Z,54.40
2017-10-07T09:35:18.007Z,55.30
2017-10-07T09:37:46.411Z,55.30
2017-10-07T09:40:15.052Z,55.10
2017-10-07T09:42:43.567Z,55.10
2017-10-07T09:45:12.388Z,54.80
2017-10-07T09:47:41.488Z,54.10
2017-10-07T09:50:10.682Z,53.90
2017-10-07T09:52:39.890Z,53.90
2017-10-07T09:55:08.646Z,53.90
2017-10-07T09:57:36.930Z,54.00
2017-10-07T10:00:05.790Z,52.50
2017-10-07T10:02:34.269Z,52.50
2017-10-07T10:05:02.708Z,52.30
2017-10-07T10:07:31.056Z,52.80
2017-10-07T10:10:00.085Z,52.20
2017-10-07T10:12:28.532Z,52.00
2017-10-07T10:14:57.950Z,52.40
2017-10-07T10:17:26.430Z,52.30
2017-10-07T10:19:54.995Z,51.90
2017-10-07T10:22:25.013Z,49.60
2017-10-07T10:24:54.234Z,49.80
2017-10-07T10:27:22.497Z,49.80
2017-10-07T10:29:50.965Z,49.70
2017-10-07T10:32:20.190Z,49.00
2017-10-07T10:34:48.530Z,49.20
2017-10-07T10:37:17.666Z,48.20
2017-10-07T10:39:46.086Z,48.20
2017-10-07T10:42:14.396Z,48.50
2017-10-07T10:44:43.675Z,47.30
2017-10-07T10:47:11.978Z,46.70
2017-10-07T10:49:40.532Z,47.10
2017-10-07T10:52:09.033Z,46.10
2017-10-07T10:54:38.093Z,44.60
2017-10-07T10:57:06.397Z,43.90
2017-10-07T10:59:34.761Z,44.70
2017-10-07T11:02:03.081Z,43.00
2017-10-07T11:04:31.546Z,41.80
2017-10-07T11:07:01.046Z,40.30
2017-10-07T11:09:30.366Z,40.30
2017-10-07T11:11:58.790Z,40.30
2017-10-07T11:14:27.308Z,41.00
2017-10-07T11:16:56.614Z,40.10
2017-10-07T11:19:25.471Z,38.70
2017-10-07T11:21:54.066Z,38.70
2017-10-07T11:24:22.533Z,37.60
2017-10-07T11:26:50.990Z,37.60
2017-10-07T11:29:19.300Z,37.10
2017-10-07T11:31:48.736Z,36.70
2017-10-07T11:34:17.263Z,37.70
2017-10-07T11:36:45.534Z,38.10
2017-10-07T11:39:13.794Z,37.90
2017-10-07T11:41:42.487Z,37.10
2017-10-07T11:44:10.828Z,37.20
2017-10-07T11:46:39.180Z,35.10
2017-10-07T11:49:07.943Z,36.60
2017-10-07T11:51:36.224Z,36.60
2017-10-07T11:54:05.232Z,35.10
2017-10-07T11:56:34.313Z,34.70
2017-10-07T11:59:02.511Z,34.50
2017-10-07T12:01:31.816Z,34.70
2017-10-07T12:04:01.079Z,35.30
2017-10-07T12:06:29.839Z,35.40
2017-10-07T12:08:58.457Z,34.50
2017-10-07T12:11:26.936Z,34.90
2017-10-07T12:13:55.499Z,34.80
2017-10-07T12:16:24.836Z,33.60
2017-10-07T12:18:54.217Z,37.60
2017-10-07T12:21:22.752Z,37.60
2017-10-07T12:23:50.986Z,38.30
2017-10-07T12:26:19.153Z,38.30
2017-10-07T12:28:47.769Z,37.90
2017-10-07T12:31:16.109Z,38.00
2017-10-07T12:33:44.673Z,38.50
2017-10-07T12:36:13.188Z,38.30
2017-10-07T12:38:42.375Z,38.40
2017-10-07T12:41:11.757Z,39.20
2017-10-07T12:43:40.241Z,39.00
2017-10-07T12:46:08.526Z,39.10
2017-10-07T12:48:37.837Z,39.70
2017-10-07T12:51:07.144Z,39.80
2017-10-07T12:53:35.433Z,39.80
2017-10-07T12:56:04.102Z,40.40
2017-10-07T12:58:33.392Z,40.80
2017-10-07T13:01:01.902Z,41.10
2017-10-07T13:03:30.452Z,41.00
2017-10-07T13:05:58.956Z,41.10
2017-10-07T13:08:28.238Z,41.70
2017-10-07T13:10:58.257Z,42.10
2017-10-07T13:13:27.405Z,42.50
2017-10-07T13:15:56.057Z,42.50
2017-10-07T13:18:24.505Z,42.60
2017-10-07T13:20:53.741Z,42.10
2017-10-07T13:23:22.404Z,42.10
2017-10-07T13:25:50.914Z,42.80
2017-10-07T13:28:19.513Z,42.80
2017-10-07T13:30:47.783Z,42.50
2017-10-07T13:33:16.312Z,42.90
2017-10-07T13:35:44.586Z,42.40
2017-10-07T13:38:12.971Z,42.50
2017-10-07T13:40:42.297Z,43.60
2017-10-07T13:43:11.257Z,43.60
2017-10-07T13:45:39.800Z,43.50
2017-10-07T13:48:08.096Z,43.80
2017-10-07T13:50:36.601Z,44.20
2017-10-07T13:53:05.698Z,44.60
2017-10-07T13:55:35.107Z,44.60
2017-10-07T13:58:04.395Z,44.90
2017-10-07T14:00:33.514Z,44.80
2017-10-07T14:03:02.718Z,45.20
2017-10-07T14:05:31.408Z,45.20
2017-10-07T14:07:59.687Z,44.80
2017-10-07T14:10:28.328Z,44.90
2017-10-07T14:12:57.779Z,45.10
2017-10-07T14:15:26.061Z,45.10
2017-10-07T14:17:54.593Z,45.40
2017-10-07T14:20:23.002Z,45.40
2017-10-07T14:22:51.142Z,45.30
2017-10-07T14:25:19.830Z,45.30
2017-10-07T14:27:48.445Z,45.40
2017-10-07T14:30:16.861Z,45.60
2017-10-07T14:32:45.483Z,45.30
2017-10-07T14:35:13.833Z,45.40
2017-10-07T14:37:42.248Z,46.20
2017-10-07T14:40:11.279Z,45.40
2017-10-07T14:42:39.949Z,45.40
2017-10-07T14:45:08.176Z,45.70
2017-10-07T14:47:37.177Z,44.60
2017-10-07T14:50:05.448Z,44.60
2017-10-07T14:52:33.719Z,44.10
2017-10-07T14:55:02.196Z,45.20
2017-10-07T14:57:30.888Z,44.60
2017-10-07T14:59:59.163Z,45.00
2017-10-07T15:02:27.940Z,44.50
2017-10-07T15:04:56.414Z,44.70
2017-10-07T15:07:25.048Z,44.50
2017-10-07T15:09:53.810Z,44.80
2017-10-07T15:12:22.100Z,44.50
2017-10-07T15:14:51.284Z,44.40
2017-10-07T15:17:19.543Z,44.40
2017-10-07T15:19:47.932Z,44.10
2017-10-07T15:22:16.534Z,44.00
2017-10-07T15:24:45.832Z,44.00
2017-10-07T15:27:14.490Z,44.00
2017-10-07T15:29:43.113Z,43.90
2017-10-07T15:32:11.862Z,43.80
2017-10-07T15:34:40.459Z,44.30
2017-10-07T15:37:09.663Z,44.90
2017-10-07T15:39:38.828Z,44.50
2017-10-07T15:42:07.432Z,44.50
2017-10-07T15:44:36.713Z,44.80
2017-10-07T15:47:05.194Z,44.80
2017-10-07T15:49:33.470Z,44.50
2017-10-07T15:52:02.073Z,44.60
2017-10-07T15:54:31.350Z,44.50
2017-10-07T15:56:59.673Z,44.50
2017-10-07T15:59:28.226Z,44.10
2017-10-07T16:01:56.791Z,44.40
2017-10-07T16:04:25.334Z,45.00
2017-10-07T16:06:54.034Z,44.50
2017-10-07T16:09:22.766Z,47.90
2017-10-07T16:11:51.447Z,47.50
2017-10-07T16:14:20.928Z,50.90
2017-10-07T16:16:49.647Z,50.40
2017-10-07T16:19:18.610Z,50.70
2017-10-07T16:21:47.155Z,50.70
2017-10-07T16:24:15.730Z,50.50
2017-10-07T16:26:44.064Z,51.00
2017-10-07T16:29:12.415Z,50.90
2017-10-07T16:31:40.832Z,51.00
2017-10-07T16:34:09.992Z,52.00
2017-10-07T16:36:38.164Z,52.00
2017-10-07T16:39:06.810Z,52.00
2017-10-07T16:41:35.246Z,52.20
2017-10-07T16:44:03.774Z,52.30
2017-10-07T16:46:32.074Z,52.20
2017-10-07T16:49:00.710Z,51.80
2017-10-07T16:51:29.908Z,52.50
2017-10-07T16:53:59.413Z,52.70
2017-10-07T16:56:28.544Z,52.70
2017-10-07T16:58:56.903Z,52.70
2017-10-07T17:01:25.733Z,52.80
2017-10-07T17:03:54.472Z,53.20
2017-10-07T17:06:23.851Z,53.70
2017-10-07T17:08:53.456Z,54.20
2017-10-07T17:11:21.832Z,53.80
2017-10-07T17:13:51.284Z,54.00
2017-10-07T17:16:19.831Z,54.00
2017-10-07T17:18:48.990Z,54.20
2017-10-07T17:21:17.618Z,54.20
2017-10-07T17:23:46.809Z,54.60
2017-10-07T17:26:16.316Z,54.70
2017-10-07T17:28:45.769Z,54.70
2017-10-07T17:31:14.003Z,54.70
2017-10-07T17:33:43.071Z,54.50
2017-10-07T17:36:12.325Z,54.90
2017-10-07T17:38:40.513Z,54.80
2017-10-07T17:41:08.692Z,54.90
2017-10-07T17:43:37.136Z,55.20
2017-10-07T17:46:05.389Z,55.20
2017-10-07T17:48:34.799Z,55.30
2017-10-07T17:51:03.247Z,55.30
2017-10-07T17:53:31.531Z,55.60
2017-10-07T17:56:00.895Z,56.00
2017-10-07T17:58:29.506Z,55.30
2017-10-07T18:00:57.843Z,55.30
2017-10-07T18:03:26.373Z,55.50
2017-10-07T18:05:55.576Z,55.40
2017-10-07T18:08:23.997Z,55.40
2017-10-07T18:10:52.313Z,55.20
2017-10-07T18:13:20.494Z,55.00
2017-10-07T18:15:49.811Z,55.00
2017-10-07T18:18:18.752Z,54.70
2017-10-07T18:20:47.473Z,54.60
2017-10-07T18:23:16.651Z,54.90
2017-10-07T18:25:45.246Z,54.90
2017-10-07T18:28:13.917Z,54.80
2017-10-07T18:30:42.624Z,54.90
2017-10-07T18:33:10.996Z,54.80
2017-10-07T18:35:39.480Z,55.00
2017-10-07T18:38:07.987Z,54.90
2017-10-07T18:40:36.867Z,55.50
2017-10-07T18:43:06.360Z,54.80
2017-10-07T18:45:35.574Z,55.80
2017-10-07T18:48:03.822Z,55.00
2017-10-07T18:50:32.251Z,55.20
2017-10-07T18:53:00.791Z,55.40
2017-10-07T18:55:30.307Z,55.50
2017-10-07T18:57:59.505Z,55.60
2017-10-07T19:00:28.574Z,55.70
2017-10-07T19:02:57.086Z,55.70
2017-10-07T19:05:25.670Z,56.60
2017-10-07T19:07:53.920Z,57.20
2017-10-07T19:10:23.280Z,57.60
2017-10-07T19:12:52.020Z,57.60
2017-10-07T19:15:20.637Z,57.70
2017-10-07T19:17:49.292Z,57.90
2017-10-07T19:20:18.658Z,58.10
2017-10-07T19:22:47.298Z,58.10
2017-10-07T19:25:15.557Z,57.30
2017-10-07T19:27:44.974Z,56.30
2017-10-07T19:30:13.381Z,56.30
2017-10-07T19:32:41.960Z,56.20
2017-10-07T19:35:10.171Z,56.70
2017-10-07T19:37:38.771Z,56.80
2017-10-07T19:40:07.968Z,56.60
2017-10-07T19:42:37.395Z,56.40
2017-10-07T19:45:05.588Z,56.40
2017-10-07T19:47:33.985Z,56.50
2017-10-07T19:50:02.592Z,56.60
2017-10-07T19:52:31.228Z,56.50
2017-10-07T19:54:59.333Z,56.50
2017-10-07T19:57:27.965Z,56.20
2017-10-07T19:59:56.245Z,55.90
2017-10-07T20:02:24.564Z,55.10
2017-10-07T20:04:52.971Z,55.00
2017-10-07T20:07:22.270Z,55.00
2017-10-07T20:09:51.672Z,55.20
2017-10-07T20:12:21.140Z,55.00
2017-10-07T20:14:49.859Z,55.10
2017-10-07T20:17:18.420Z,55.20
2017-10-07T20:19:46.809Z,55.10
2017-10-07T20:22:15.291Z,54.80
2017-10-07T20:24:44.392Z,55.30
2017-10-07T20:27:13.011Z,54.50
2017-10-07T20:29:41.571Z,54.30
2017-10-07T20:32:11.234Z,54.50
2017-10-07T20:34:40.576Z,54.60
2017-10-07T20:37:09.978Z,54.80
2017-10-07T20:39:38.108Z,54.70
2017-10-07T20:42:06.415Z,54.50
2017-10-07T20:44:34.802Z,54.50
2017-10-07T20:47:03.911Z,54.10
2017-10-07T20:49:33.569Z,54.00
2017-10-07T20:52:02.227Z,53.90
2017-10-07T20:54:30.546Z,53.70
2017-10-07T20:56:59.092Z,53.50
2017-10-07T20:59:27.736Z,53.60
2017-10-07T21:01:56.873Z,53.50
2017-10-07T21:04:25.401Z,53.40
2017-10-07T21:06:53.806Z,53.10
2017-10-07T21:09:22.468Z,52.90
2017-10-07T21:11:52.087Z,53.20
2017-10-07T21:14:21.489Z,53.00
2017-10-07T21:16:49.743Z,53.00
2017-10-07T21:19:18.099Z,53.20
2017-10-07T21:21:46.754Z,53.70
2017-10-07T21:24:16.238Z,53.40
2017-10-07T21:26:44.494Z,53.30
2017-10-07T21:29:13.892Z,53.10
2017-10-07T21:31:43.391Z,53.00
2017-10-07T21:34:11.806Z,53.00
2017-10-07T21:36:40.500Z,53.20
2017-10-07T21:39:09.080Z,52.90
2017-10-07T21:41:37.310Z,52.90
2017-10-07T21:44:05.951Z,52.60
2017-10-07T21:46:34.551Z,53.40
2017-10-07T21:49:03.428Z,52.60
2017-10-07T21:51:32.152Z,52.10
2017-10-07T21:54:01.254Z,51.70
2017-10-07T21:56:29.734Z,51.40
2017-10-07T21:58:59.013Z,51.20
2017-10-07T22:01:27.529Z,51.20
2017-10-07T22:03:56.661Z,52.10
2017-10-07T22:06:24.898Z,51.50
2017-10-07T22:08:54.079Z,52.40
2017-10-07T22:11:22.196Z,52.40
2017-10-07T22:13:50.568Z,52.70
2017-10-07T22:16:18.994Z,52.90
2017-10-07T22:18:47.587Z,52.50
2017-10-07T22:21:15.874Z,52.80
2017-10-07T22:23:44.270Z,52.70
2017-10-07T22:26:13.433Z,52.80
2017-10-07T22:28:42.509Z,52.70
2017-10-07T22:31:11.249Z,52.70
2017-10-07T22:33:39.473Z,52.50
2017-10-07T22:36:07.876Z,52.60
2017-10-07T22:38:36.157Z,52.20
2017-10-07T22:41:05.237Z,51.60
2017-10-07T22:43:33.734Z,51.60
2017-10-07T22:46:02.222Z,51.70
2017-10-07T22:48:31.309Z,51.30
2017-10-07T22:51:00.699Z,51.50
2017-10-07T22:53:29.066Z,51.50
2017-10-07T22:55:57.590Z,52.00
2017-10-07T22:58:26.198Z,51.80
2017-10-07T23:00:54.522Z,52.00
2017-10-07T23:03:23.111Z,52.40
2017-10-07T23:05:51.635Z,52.30
2017-10-07T23:08:20.175Z,51.70
2017-10-07T23:10:49.667Z,52.10
2017-10-07T23:13:18.447Z,52.10
2017-10-07T23:15:46.624Z,51.60
2017-10-07T23:18:14.824Z,51.90
2017-10-07T23:20:44.048Z,52.20
2017-10-07T23:23:12.693Z,52.20
2017-10-07T23:25:41.874Z,53.30
2017-10-07T23:28:10.233Z,53.30
2017-10-07T23:30:38.226Z,53.70
2017-10-07T23:33:06.716Z,54.00
2017-10-07T23:35:35.915Z,54.40
2017-10-07T23:38:05.076Z,54.60
2017-10-07T23:40:33.722Z,54.60
2017-10-07T23:43:02.121Z,54.70
2017-10-07T23:45:31.021Z,54.80
2017-10-07T23:47:59.465Z,55.20
2017-10-07T23:50:28.014Z,55.40
2017-10-07T23:52:57.543Z,55.60
2017-10-07T23:55:25.812Z,55.60
2017-10-07T23:57:55.013Z,55.70
